Pagrindinis puslapis
METAR-TAF:

METAR-TAF

Oro uostai :

Ørland, Norvegija

platuma: 63-42N, ilguma: 009-36E, Aukštis: 0 m

Dabartinis oras

Ataskaita buvo paskelbta 42 minutes, ne 01:50 UTC
Vėjas 5 kt iš Pietryčių
Temperatūra 13°C
Drėgmė 94%
Slėgis 1021 hPa
Matomumas 10 km arba daugiau
Mažai debesys ne aukštis 1400 ft
Su prošvaistėmis ne aukštis 3700 ft

METAR: ENOL 240150Z 14005KT 9999 FEW014 BKN037 13/12 Q1021

Laikas: 04:32 (02:32 UTC)

Prognozė

Prognozė galioja nuo 24 metu 00 UTC su 24 metu 24 UTC
Vėjas 8 kt iš Pietų/Pietvakarių
Matomumas 10 km arba daugiau
Mažai debesys ne aukštis 1200 ft
Su prošvaistėmis ne aukštis 6000 ft
Laikinai
nuo 24 metu 00 UTC su 24 metu 04 UTC
Matomumas: 3000 m
Išsisklaidę debesys ne aukštis 500 ft
Su prošvaistėmis ne aukštis 800 ft
dulksna
Tapsmas
nuo 24 metu 01 UTC su 24 metu 04 UTC
Vėjas 10 kt iš Pietryčių

TAF: ENOL 2400/2424 21008KT 9999 FEW012 BKN060 TEMPO 2400/2404 3000 DZ SCT005 BKN008 BECMG 2401/2404 13010KT

Orai ataskaitas ir orų prognozės (METAR, TAF).

turimą stotys yra geltonos ir raudonos taškus žemėlapyje.

Perkelti pele per norėdami pamatyti stoties vardą.

Tada spustelėkite, norėdami matyti oro stebėjimo ir prognozės.

Norėdami pakeisti žemėlapį: spustelėkite ant žalios mygtukų su juodo kryžiaus žemyn,; žalią mygtuką su brūkšneliu, jei norite nutolinti; arba žalių rodyklių gretimoms žemėlapius.


METAR-TAF: